sensor_id;sensor_type;location;lat;lon;timestamp;temperature;humidity
16273;DHT22;8244;50.044;9.006;2023-09-30T00:02:09;17.50;99.90
16273;DHT22;8244;50.044;9.006;2023-09-30T00:07:13;17.50;99.90
16273;DHT22;8244;50.044;9.006;2023-09-30T00:12:15;17.40;99.90
16273;DHT22;8244;50.044;9.006;2023-09-30T00:17:16;17.50;99.90
16273;DHT22;8244;50.044;9.006;2023-09-30T00:22:19;17.50;99.90
16273;DHT22;8244;50.044;9.006;2023-09-30T00:27:21;17.50;99.90
16273;DHT22;8244;50.044;9.006;2023-09-30T00:32:23;17.40;99.90
16273;DHT22;8244;50.044;9.006;2023-09-30T00:37:26;17.40;99.90
16273;DHT22;8244;50.044;9.006;2023-09-30T00:42:28;17.30;99.90
16273;DHT22;8244;50.044;9.006;2023-09-30T00:47:30;17.30;99.90
16273;DHT22;8244;50.044;9.006;2023-09-30T00:52:33;17.30;99.90
16273;DHT22;8244;50.044;9.006;2023-09-30T00:57:37;17.20;99.90
16273;DHT22;8244;50.044;9.006;2023-09-30T01:02:39;17.20;99.90
16273;DHT22;8244;50.044;9.006;2023-09-30T01:07:43;17.10;99.90
16273;DHT22;8244;50.044;9.006;2023-09-30T01:12:45;17.10;99.90
16273;DHT22;8244;50.044;9.006;2023-09-30T01:17:47;17.00;99.90
16273;DHT22;8244;50.044;9.006;2023-09-30T01:22:51;17.00;99.90
16273;DHT22;8244;50.044;9.006;2023-09-30T01:27:53;16.90;99.90
16273;DHT22;8244;50.044;9.006;2023-09-30T01:32:55;16.80;99.90
16273;DHT22;8244;50.044;9.006;2023-09-30T01:37:58;16.70;99.90
16273;DHT22;8244;50.044;9.006;2023-09-30T01:43:00;16.70;99.90
16273;DHT22;8244;50.044;9.006;2023-09-30T01:48:02;16.60;99.90
16273;DHT22;8244;50.044;9.006;2023-09-30T01:53:05;16.50;99.90
16273;DHT22;8244;50.044;9.006;2023-09-30T01:58:07;16.40;99.90
16273;DHT22;8244;50.044;9.006;2023-09-30T02:03:11;16.30;99.90
16273;DHT22;8244;50.044;9.006;2023-09-30T02:08:14;16.30;99.90
16273;DHT22;8244;50.044;9.006;2023-09-30T02:13:16;16.20;99.90
16273;DHT22;8244;50.044;9.006;2023-09-30T02:18:18;16.10;99.90
16273;DHT22;8244;50.044;9.006;2023-09-30T02:23:21;16.00;99.90
16273;DHT22;8244;50.044;9.006;2023-09-30T02:28:24;16.00;99.90
16273;DHT22;8244;50.044;9.006;2023-09-30T02:33:26;16.00;99.90
16273;DHT22;8244;50.044;9.006;2023-09-30T02:38:28;15.90;99.90
16273;DHT22;8244;50.044;9.006;2023-09-30T02:43:30;15.90;99.90
16273;DHT22;8244;50.044;9.006;2023-09-30T02:48:33;15.80;99.90
16273;DHT22;8244;50.044;9.006;2023-09-30T02:53:36;15.80;99.90
16273;DHT22;8244;50.044;9.006;2023-09-30T02:58:37;15.80;99.90
16273;DHT22;8244;50.044;9.006;2023-09-30T03:03:40;15.70;99.90
16273;DHT22;8244;50.044;9.006;2023-09-30T03:08:45;15.60;99.90
16273;DHT22;8244;50.044;9.006;2023-09-30T03:13:48;15.50;99.90
16273;DHT22;8244;50.044;9.006;2023-09-30T03:18:51;15.40;99.90
16273;DHT22;8244;50.044;9.006;2023-09-30T03:23:57;15.30;99.90
16273;DHT22;8244;50.044;9.006;2023-09-30T03:28:59;15.20;99.90
16273;DHT22;8244;50.044;9.006;2023-09-30T03:34:02;15.20;99.90
16273;DHT22;8244;50.044;9.006;2023-09-30T03:39:05;15.10;99.90
16273;DHT22;8244;50.044;9.006;2023-09-30T03:44:09;15.00;99.90
16273;DHT22;8244;50.044;9.006;2023-09-30T03:49:10;14.90;99.90
16273;DHT22;8244;50.044;9.006;2023-09-30T03:54:13;14.80;99.90
16273;DHT22;8244;50.044;9.006;2023-09-30T03:59:15;14.70;99.90
16273;DHT22;8244;50.044;9.006;2023-09-30T04:04:16;14.60;99.90
16273;DHT22;8244;50.044;9.006;2023-09-30T04:09:19;14.50;99.90
16273;DHT22;8244;50.044;9.006;2023-09-30T04:14:21;14.50;99.90
16273;DHT22;8244;50.044;9.006;2023-09-30T04:19:23;14.50;99.90
16273;DHT22;8244;50.044;9.006;2023-09-30T04:24:26;14.40;99.90
16273;DHT22;8244;50.044;9.006;2023-09-30T04:29:29;14.40;99.90
16273;DHT22;8244;50.044;9.006;2023-09-30T04:34:31;14.40;99.90
16273;DHT22;8244;50.044;9.006;2023-09-30T04:39:33;14.40;99.90
16273;DHT22;8244;50.044;9.006;2023-09-30T04:44:37;14.40;99.90
16273;DHT22;8244;50.044;9.006;2023-09-30T04:49:39;14.30;99.90
16273;DHT22;8244;50.044;9.006;2023-09-30T04:54:42;14.30;99.90
16273;DHT22;8244;50.044;9.006;2023-09-30T04:59:45;14.30;99.90
16273;DHT22;8244;50.044;9.006;2023-09-30T05:04:47;14.20;99.90
16273;DHT22;8244;50.044;9.006;2023-09-30T05:09:50;14.20;99.90
16273;DHT22;8244;50.044;9.006;2023-09-30T05:14:54;14.20;99.90
16273;DHT22;8244;50.044;9.006;2023-09-30T05:19:56;14.20;99.90
16273;DHT22;8244;50.044;9.006;2023-09-30T05:24:59;14.20;99.90
16273;DHT22;8244;50.044;9.006;2023-09-30T05:30:02;14.30;99.90
16273;DHT22;8244;50.044;9.006;2023-09-30T05:35:04;14.30;99.90
16273;DHT22;8244;50.044;9.006;2023-09-30T05:40:14;14.30;99.90
16273;DHT22;8244;50.044;9.006;2023-09-30T05:45:23;14.30;99.90
16273;DHT22;8244;50.044;9.006;2023-09-30T05:50:26;14.20;99.90
16273;DHT22;8244;50.044;9.006;2023-09-30T05:55:29;14.20;99.90
16273;DHT22;8244;50.044;9.006;2023-09-30T06:00:30;14.10;99.90
16273;DHT22;8244;50.044;9.006;2023-09-30T06:05:39;14.10;99.90
16273;DHT22;8244;50.044;9.006;2023-09-30T06:10:42;14.10;99.90
16273;DHT22;8244;50.044;9.006;2023-09-30T06:15:44;14.10;99.90
16273;DHT22;8244;50.044;9.006;2023-09-30T06:20:47;14.10;99.90
16273;DHT22;8244;50.044;9.006;2023-09-30T06:25:50;14.20;99.90
16273;DHT22;8244;50.044;9.006;2023-09-30T06:30:53;14.30;99.90
16273;DHT22;8244;50.044;9.006;2023-09-30T06:35:55;14.40;99.90
16273;DHT22;8244;50.044;9.006;2023-09-30T06:40:58;14.50;99.90
16273;DHT22;8244;50.044;9.006;2023-09-30T06:46:05;14.70;99.90
16273;DHT22;8244;50.044;9.006;2023-09-30T06:51:12;14.90;99.90
16273;DHT22;8244;50.044;9.006;2023-09-30T06:56:15;15.10;99.90
16273;DHT22;8244;50.044;9.006;2023-09-30T07:01:17;15.20;99.90
16273;DHT22;8244;50.044;9.006;2023-09-30T07:06:22;15.30;99.90
16273;DHT22;8244;50.044;9.006;2023-09-30T07:11:29;15.30;99.90
16273;DHT22;8244;50.044;9.006;2023-09-30T07:16:33;15.40;99.90
16273;DHT22;8244;50.044;9.006;2023-09-30T07:21:34;15.50;99.90
16273;DHT22;8244;50.044;9.006;2023-09-30T07:26:39;15.70;99.90
16273;DHT22;8244;50.044;9.006;2023-09-30T07:31:40;15.90;99.90
16273;DHT22;8244;50.044;9.006;2023-09-30T07:36:42;16.20;99.90
16273;DHT22;8244;50.044;9.006;2023-09-30T07:41:45;16.80;99.90
16273;DHT22;8244;50.044;9.006;2023-09-30T07:46:47;17.70;99.90
16273;DHT22;8244;50.044;9.006;2023-09-30T07:51:49;18.40;99.90
16273;DHT22;8244;50.044;9.006;2023-09-30T07:56:52;19.20;99.90
16273;DHT22;8244;50.044;9.006;2023-09-30T08:01:54;20.10;99.90
16273;DHT22;8244;50.044;9.006;2023-09-30T08:06:56;21.00;99.90
16273;DHT22;8244;50.044;9.006;2023-09-30T08:11:59;21.70;99.90
16273;DHT22;8244;50.044;9.006;2023-09-30T08:17:01;22.30;99.90
16273;DHT22;8244;50.044;9.006;2023-09-30T08:22:03;22.80;99.90
16273;DHT22;8244;50.044;9.006;2023-09-30T08:27:06;23.30;99.90
16273;DHT22;8244;50.044;9.006;2023-09-30T08:32:08;23.70;99.90
16273;DHT22;8244;50.044;9.006;2023-09-30T08:37:10;24.10;99.90
16273;DHT22;8244;50.044;9.006;2023-09-30T08:42:13;24.40;99.90
16273;DHT22;8244;50.044;9.006;2023-09-30T08:47:15;24.60;99.90
16273;DHT22;8244;50.044;9.006;2023-09-30T08:52:16;24.90;99.40
16273;DHT22;8244;50.044;9.006;2023-09-30T08:57:20;25.00;99.70
16273;DHT22;8244;50.044;9.006;2023-09-30T09:02:22;24.70;98.70
16273;DHT22;8244;50.044;9.006;2023-09-30T09:07:24;24.30;98.90
16273;DHT22;8244;50.044;9.006;2023-09-30T09:12:27;24.20;98.90
16273;DHT22;8244;50.044;9.006;2023-09-30T09:17:47;24.40;98.80
16273;DHT22;8244;50.044;9.006;2023-09-30T09:22:52;24.70;97.70
16273;DHT22;8244;50.044;9.006;2023-09-30T09:27:56;25.00;96.00
16273;DHT22;8244;50.044;9.006;2023-09-30T09:33:02;25.30;96.10
16273;DHT22;8244;50.044;9.006;2023-09-30T09:38:06;25.40;96.10
16273;DHT22;8244;50.044;9.006;2023-09-30T09:43:09;25.40;94.40
16273;DHT22;8244;50.044;9.006;2023-09-30T09:48:12;25.10;94.10
16273;DHT22;8244;50.044;9.006;2023-09-30T09:53:14;25.20;94.40
16273;DHT22;8244;50.044;9.006;2023-09-30T09:58:20;25.20;92.10
16273;DHT22;8244;50.044;9.006;2023-09-30T10:03:22;24.90;93.10
16273;DHT22;8244;50.044;9.006;2023-09-30T10:08:30;24.80;94.80
16273;DHT22;8244;50.044;9.006;2023-09-30T10:13:54;25.10;93.30
16273;DHT22;8244;50.044;9.006;2023-09-30T10:19:10;25.10;93.80
16273;DHT22;8244;50.044;9.006;2023-09-30T10:24:30;25.60;92.60
16273;DHT22;8244;50.044;9.006;2023-09-30T10:29:40;25.90;89.90
16273;DHT22;8244;50.044;9.006;2023-09-30T10:34:47;25.90;91.80
16273;DHT22;8244;50.044;9.006;2023-09-30T10:39:53;26.00;90.10
16273;DHT22;8244;50.044;9.006;2023-09-30T10:44:57;26.30;90.70
16273;DHT22;8244;50.044;9.006;2023-09-30T10:49:58;26.70;90.50
16273;DHT22;8244;50.044;9.006;2023-09-30T10:55:04;27.00;89.00
16273;DHT22;8244;50.044;9.006;2023-09-30T11:00:09;26.90;88.30
16273;DHT22;8244;50.044;9.006;2023-09-30T11:05:12;27.00;87.30
16273;DHT22;8244;50.044;9.006;2023-09-30T11:10:16;27.10;85.00
16273;DHT22;8244;50.044;9.006;2023-09-30T11:15:19;27.20;84.90
16273;DHT22;8244;50.044;9.006;2023-09-30T11:20:21;27.40;86.40
16273;DHT22;8244;50.044;9.006;2023-09-30T11:25:23;27.50;83.00
16273;DHT22;8244;50.044;9.006;2023-09-30T11:30:26;27.30;83.30
16273;DHT22;8244;50.044;9.006;2023-09-30T11:35:28;27.50;82.00
16273;DHT22;8244;50.044;9.006;2023-09-30T11:40:30;27.60;80.60
16273;DHT22;8244;50.044;9.006;2023-09-30T11:45:33;27.60;78.50
16273;DHT22;8244;50.044;9.006;2023-09-30T11:50:45;27.80;78.20
16273;DHT22;8244;50.044;9.006;2023-09-30T11:55:47;27.80;80.40
16273;DHT22;8244;50.044;9.006;2023-09-30T12:00:53;28.00;77.30
16273;DHT22;8244;50.044;9.006;2023-09-30T12:05:55;28.20;79.90
16273;DHT22;8244;50.044;9.006;2023-09-30T12:10:56;28.20;76.40
16273;DHT22;8244;50.044;9.006;2023-09-30T12:16:01;28.00;76.30
16273;DHT22;8244;50.044;9.006;2023-09-30T12:21:04;28.10;77.60
16273;DHT22;8244;50.044;9.006;2023-09-30T12:26:07;28.20;76.50
16273;DHT22;8244;50.044;9.006;2023-09-30T12:31:10;28.30;77.10
16273;DHT22;8244;50.044;9.006;2023-09-30T12:36:11;28.40;73.80
16273;DHT22;8244;50.044;9.006;2023-09-30T12:41:14;28.10;75.70
16273;DHT22;8244;50.044;9.006;2023-09-30T12:46:17;28.10;75.10
16273;DHT22;8244;50.044;9.006;2023-09-30T12:51:18;28.10;75.10
16273;DHT22;8244;50.044;9.006;2023-09-30T12:56:20;28.10;74.00
16273;DHT22;8244;50.044;9.006;2023-09-30T13:01:23;28.10;74.80
16273;DHT22;8244;50.044;9.006;2023-09-30T13:06:25;27.90;71.50
16273;DHT22;8244;50.044;9.006;2023-09-30T13:11:29;27.70;72.20
16273;DHT22;8244;50.044;9.006;2023-09-30T13:16:32;27.40;72.20
16273;DHT22;8244;50.044;9.006;2023-09-30T13:21:34;27.20;73.40
16273;DHT22;8244;50.044;9.006;2023-09-30T13:26:35;26.60;75.30
16273;DHT22;8244;50.044;9.006;2023-09-30T13:31:39;26.40;73.40
16273;DHT22;8244;50.044;9.006;2023-09-30T13:36:41;26.00;76.10
16273;DHT22;8244;50.044;9.006;2023-09-30T13:41:42;25.90;74.30
16273;DHT22;8244;50.044;9.006;2023-09-30T13:46:46;25.70;74.20
16273;DHT22;8244;50.044;9.006;2023-09-30T13:51:48;25.40;74.80
16273;DHT22;8244;50.044;9.006;2023-09-30T13:56:50;25.30;77.20
16273;DHT22;8244;50.044;9.006;2023-09-30T14:01:53;25.10;77.70
16273;DHT22;8244;50.044;9.006;2023-09-30T14:06:55;25.00;78.00
16273;DHT22;8244;50.044;9.006;2023-09-30T14:11:57;24.80;76.30
16273;DHT22;8244;50.044;9.006;2023-09-30T14:17:01;24.40;75.70
16273;DHT22;8244;50.044;9.006;2023-09-30T14:22:08;24.30;78.40
16273;DHT22;8244;50.044;9.006;2023-09-30T14:27:09;24.20;77.60
16273;DHT22;8244;50.044;9.006;2023-09-30T14:32:12;24.20;79.60
16273;DHT22;8244;50.044;9.006;2023-09-30T14:37:14;24.10;76.30
16273;DHT22;8244;50.044;9.006;2023-09-30T14:42:17;24.10;77.70
16273;DHT22;8244;50.044;9.006;2023-09-30T14:47:20;24.10;78.80
16273;DHT22;8244;50.044;9.006;2023-09-30T14:52:22;24.00;76.60
16273;DHT22;8244;50.044;9.006;2023-09-30T14:57:25;23.80;78.00
16273;DHT22;8244;50.044;9.006;2023-09-30T15:02:28;23.70;77.40
16273;DHT22;8244;50.044;9.006;2023-09-30T15:07:29;23.70;77.80
16273;DHT22;8244;50.044;9.006;2023-09-30T15:12:31;23.70;78.70
16273;DHT22;8244;50.044;9.006;2023-09-30T15:17:34;23.70;80.40
16273;DHT22;8244;50.044;9.006;2023-09-30T15:22:37;23.70;81.40
16273;DHT22;8244;50.044;9.006;2023-09-30T15:27:39;23.60;82.80
16273;DHT22;8244;50.044;9.006;2023-09-30T15:32:42;23.40;82.90
16273;DHT22;8244;50.044;9.006;2023-09-30T15:37:44;23.20;82.60
16273;DHT22;8244;50.044;9.006;2023-09-30T15:42:45;23.00;84.10
16273;DHT22;8244;50.044;9.006;2023-09-30T15:47:49;22.80;85.30
16273;DHT22;8244;50.044;9.006;2023-09-30T15:52:52;22.60;87.40
16273;DHT22;8244;50.044;9.006;2023-09-30T15:57:54;22.30;90.30
16273;DHT22;8244;50.044;9.006;2023-09-30T16:02:57;22.00;91.20
16273;DHT22;8244;50.044;9.006;2023-09-30T16:07:59;21.70;90.80
16273;DHT22;8244;50.044;9.006;2023-09-30T16:13:01;21.40;91.30
16273;DHT22;8244;50.044;9.006;2023-09-30T16:18:05;21.10;90.90
16273;DHT22;8244;50.044;9.006;2023-09-30T16:23:07;20.80;91.10
16273;DHT22;8244;50.044;9.006;2023-09-30T16:28:09;20.50;91.80
16273;DHT22;8244;50.044;9.006;2023-09-30T16:33:11;20.20;92.30
16273;DHT22;8244;50.044;9.006;2023-09-30T16:38:14;20.00;92.90
16273;DHT22;8244;50.044;9.006;2023-09-30T16:43:16;19.90;93.10
16273;DHT22;8244;50.044;9.006;2023-09-30T16:48:19;19.70;93.90
16273;DHT22;8244;50.044;9.006;2023-09-30T16:53:21;19.50;94.40
16273;DHT22;8244;50.044;9.006;2023-09-30T16:58:23;19.20;94.50
16273;DHT22;8244;50.044;9.006;2023-09-30T17:03:26;19.00;95.10
16273;DHT22;8244;50.044;9.006;2023-09-30T17:08:28;18.80;95.70
16273;DHT22;8244;50.044;9.006;2023-09-30T17:13:29;18.60;96.20
16273;DHT22;8244;50.044;9.006;2023-09-30T17:18:33;18.40;96.90
16273;DHT22;8244;50.044;9.006;2023-09-30T17:23:35;18.10;97.60
16273;DHT22;8244;50.044;9.006;2023-09-30T17:28:37;17.90;98.50
16273;DHT22;8244;50.044;9.006;2023-09-30T17:33:40;17.60;98.70
16273;DHT22;8244;50.044;9.006;2023-09-30T17:38:42;17.40;99.40
16273;DHT22;8244;50.044;9.006;2023-09-30T17:43:44;17.20;99.90
16273;DHT22;8244;50.044;9.006;2023-09-30T17:48:47;16.90;99.90
16273;DHT22;8244;50.044;9.006;2023-09-30T17:53:50;16.70;99.90
16273;DHT22;8244;50.044;9.006;2023-09-30T17:58:52;16.50;99.90
16273;DHT22;8244;50.044;9.006;2023-09-30T18:03:55;16.40;99.90
16273;DHT22;8244;50.044;9.006;2023-09-30T18:08:56;16.10;99.90
16273;DHT22;8244;50.044;9.006;2023-09-30T18:13:58;16.00;99.90
16273;DHT22;8244;50.044;9.006;2023-09-30T18:19:01;15.80;99.90
16273;DHT22;8244;50.044;9.006;2023-09-30T18:24:03;15.60;99.90
16273;DHT22;8244;50.044;9.006;2023-09-30T18:29:05;15.40;99.90
16273;DHT22;8244;50.044;9.006;2023-09-30T18:34:09;15.20;99.90
16273;DHT22;8244;50.044;9.006;2023-09-30T18:39:11;15.10;99.90
16273;DHT22;8244;50.044;9.006;2023-09-30T18:44:12;15.00;99.90
16273;DHT22;8244;50.044;9.006;2023-09-30T18:49:15;14.80;99.90
16273;DHT22;8244;50.044;9.006;2023-09-30T18:54:17;14.70;99.90
16273;DHT22;8244;50.044;9.006;2023-09-30T18:59:19;14.60;99.90
16273;DHT22;8244;50.044;9.006;2023-09-30T19:04:24;14.50;99.90
16273;DHT22;8244;50.044;9.006;2023-09-30T19:09:25;14.40;99.90
16273;DHT22;8244;50.044;9.006;2023-09-30T19:14:27;14.30;99.90
16273;DHT22;8244;50.044;9.006;2023-09-30T19:19:31;14.10;99.90
16273;DHT22;8244;50.044;9.006;2023-09-30T19:24:33;14.00;99.90
16273;DHT22;8244;50.044;9.006;2023-09-30T19:29:34;13.90;99.90
16273;DHT22;8244;50.044;9.006;2023-09-30T19:34:37;13.70;99.90
16273;DHT22;8244;50.044;9.006;2023-09-30T19:39:39;13.70;99.90
16273;DHT22;8244;50.044;9.006;2023-09-30T19:44:40;13.60;99.90
16273;DHT22;8244;50.044;9.006;2023-09-30T19:49:46;13.50;99.90
16273;DHT22;8244;50.044;9.006;2023-09-30T19:54:48;13.30;99.90
16273;DHT22;8244;50.044;9.006;2023-09-30T19:59:50;13.20;99.90
16273;DHT22;8244;50.044;9.006;2023-09-30T20:04:53;13.20;99.90
16273;DHT22;8244;50.044;9.006;2023-09-30T20:09:56;13.00;99.90
16273;DHT22;8244;50.044;9.006;2023-09-30T20:14:58;12.90;99.90
16273;DHT22;8244;50.044;9.006;2023-09-30T20:20:02;12.80;99.90
16273;DHT22;8244;50.044;9.006;2023-09-30T20:25:06;12.80;99.90
16273;DHT22;8244;50.044;9.006;2023-09-30T20:30:08;12.70;99.90
16273;DHT22;8244;50.044;9.006;2023-09-30T20:35:11;12.60;99.90
16273;DHT22;8244;50.044;9.006;2023-09-30T20:40:13;12.60;99.90
16273;DHT22;8244;50.044;9.006;2023-09-30T20:45:15;12.50;99.90
16273;DHT22;8244;50.044;9.006;2023-09-30T20:50:18;12.40;99.90
16273;DHT22;8244;50.044;9.006;2023-09-30T20:55:20;12.30;99.90
16273;DHT22;8244;50.044;9.006;2023-09-30T21:00:22;12.20;99.90
16273;DHT22;8244;50.044;9.006;2023-09-30T21:05:26;12.10;99.90
16273;DHT22;8244;50.044;9.006;2023-09-30T21:10:27;12.00;99.90
16273;DHT22;8244;50.044;9.006;2023-09-30T21:15:29;11.90;99.90
16273;DHT22;8244;50.044;9.006;2023-09-30T21:20:36;11.80;99.90
16273;DHT22;8244;50.044;9.006;2023-09-30T21:25:38;11.80;99.90
16273;DHT22;8244;50.044;9.006;2023-09-30T21:30:39;11.70;99.90
16273;DHT22;8244;50.044;9.006;2023-09-30T21:35:42;11.70;99.90
16273;DHT22;8244;50.044;9.006;2023-09-30T21:40:44;11.60;99.90
16273;DHT22;8244;50.044;9.006;2023-09-30T21:45:46;11.50;99.90
16273;DHT22;8244;50.044;9.006;2023-09-30T21:50:49;11.50;99.90
16273;DHT22;8244;50.044;9.006;2023-09-30T21:55:50;11.50;99.90
16273;DHT22;8244;50.044;9.006;2023-09-30T22:00:52;11.40;99.90
16273;DHT22;8244;50.044;9.006;2023-09-30T22:05:56;11.40;99.90
16273;DHT22;8244;50.044;9.006;2023-09-30T22:10:59;11.30;99.90
16273;DHT22;8244;50.044;9.006;2023-09-30T22:16:01;11.20;99.90
16273;DHT22;8244;50.044;9.006;2023-09-30T22:21:04;11.10;99.90
16273;DHT22;8244;50.044;9.006;2023-09-30T22:26:06;11.10;99.90
16273;DHT22;8244;50.044;9.006;2023-09-30T22:31:08;11.00;99.90
16273;DHT22;8244;50.044;9.006;2023-09-30T22:36:11;11.00;99.90
16273;DHT22;8244;50.044;9.006;2023-09-30T22:41:13;10.90;99.90
16273;DHT22;8244;50.044;9.006;2023-09-30T22:46:15;10.90;99.90
16273;DHT22;8244;50.044;9.006;2023-09-30T22:51:18;10.80;99.90
16273;DHT22;8244;50.044;9.006;2023-09-30T22:56:20;10.70;99.90
16273;DHT22;8244;50.044;9.006;2023-09-30T23:01:24;10.70;99.90
16273;DHT22;8244;50.044;9.006;2023-09-30T23:06:27;10.60;99.90
16273;DHT22;8244;50.044;9.006;2023-09-30T23:11:29;10.50;99.90
16273;DHT22;8244;50.044;9.006;2023-09-30T23:16:31;10.50;99.90
16273;DHT22;8244;50.044;9.006;2023-09-30T23:21:34;10.40;99.90
16273;DHT22;8244;50.044;9.006;2023-09-30T23:26:37;10.40;99.90
16273;DHT22;8244;50.044;9.006;2023-09-30T23:31:39;10.30;99.90
16273;DHT22;8244;50.044;9.006;2023-09-30T23:36:44;10.20;99.90
16273;DHT22;8244;50.044;9.006;2023-09-30T23:41:47;10.10;99.90
16273;DHT22;8244;50.044;9.006;2023-09-30T23:46:50;10.10;99.90
16273;DHT22;8244;50.044;9.006;2023-09-30T23:51:54;10.10;99.90
16273;DHT22;8244;50.044;9.006;2023-09-30T23:56:56;10.00;99.90
